Terminal Aerodrome Forecast
Issued by NWS

Home | Current Version | Previous Version | Text Only | Print | Product List | Glossary On
Versions: 1 2 3 4 5 6 7 8 9 10 11 12
190
FTUS43 KMQT 221124
TAFCMX
TAF
KCMX 221124Z 2212/2312 10010KT P6SM BKN070
     FM221400 10009KT P6SM VCSH BKN035
     FM222100 10007KT P6SM VCTS BKN030CB
     FM230300 08004KT 2SM -SHRA BR BKN008
     FM230600 31003KT 2SM BR OVC003=

USA.gov is the U.S. government's official web portal to all federal, state and local government web resources and services.